Flight Track Log - Related Links

Times and Time Zones

All times are in EDT time to prevent confusion due to time zone crossing. See the N789EX flight status page for this flight to view local times or setup timezone preferences in your user account.

Time Position Orientation Groundspeed Altitude Reporting Facility
EDT Latitude Longitude Course Direction KTS MPH feet Rate Location/Type
Thu 12:17:12 PM 47.5121 -122.2860 144° Southeast 180 207 1,500  Level FlightAware ADS-B
Thu 12:17:27 PM 47.5010 -122.2740 143° Southeast 210 242 1,900 2,200 Climbing FlightAware ADS-B
Thu 12:17:42 PM 47.4886 -122.2600 142° Southeast 222 255 2,600 2,710 Climbing FlightAware ADS-B
Thu 12:17:58 PM 47.4756 -122.2450 142° Southeast 243 280 3,300 3,290 Climbing FlightAware ADS-B
Thu 12:18:13 PM 47.4613 -122.2280 141° Southeast 251 289 4,300 4,258 Climbing FlightAware ADS-B
Thu 12:18:29 PM 47.4479 -122.2110 140° Southeast 244 281 5,500 3,290 Climbing FlightAware ADS-B
Thu 12:18:44 PM 47.4348 -122.1950 140° Southeast 254 292 6,000 1,241 Climbing FlightAware ADS-B
Thu 12:18:58 PM 47.4217 -122.1800 142° Southeast 269 310 6,100 316 Climbing FlightAware ADS-B
Thu 12:19:03 PM 47.4169 -122.1740 145° Southeast 269 310 6,100  Level FlightAware ADS-B
Thu 12:19:06 PM 47.4135 -122.1710 148° Southeast 268 308 6,100  Level FlightAware ADS-B
Thu 12:19:10 PM 47.4091 -122.1680 154° Southeast 266 306 6,100  Level FlightAware ADS-B
Thu 12:19:13 PM 47.4055 -122.1660 161° South 264 304 6,100  Level FlightAware ADS-B
Thu 12:19:17 PM 47.4008 -122.1640 167° South 261 300 6,100  Level FlightAware ADS-B
Thu 12:19:20 PM 47.3970 -122.1630 171° South 260 299 6,100 353 Level FlightAware ADS-B
Thu 12:19:34 PM 47.3811 -122.1600 173° South 258 297 6,200 1,241 Climbing FlightAware ADS-B
Thu 12:19:49 PM 47.3630 -122.1570 173° South 260 299 6,700 2,903 Climbing FlightAware ADS-B
Thu 12:20:05 PM 47.3439 -122.1540 173° South 261 300 7,700 3,800 Climbing FlightAware ADS-B
Thu 12:20:19 PM 47.3270 -122.1510 174° South 266 306 8,600 3,913 Climbing FlightAware ADS-B
Thu 12:20:28 PM 47.3149 -122.1490 173° South 269 310 9,200 3,882 Climbing FlightAware ADS-B
Thu 12:20:36 PM 47.3060 -122.1470 172° South 271 312 9,700 3,158 Climbing FlightAware ADS-B
Thu 12:21:06 PM 47.2673 -122.1370 170° South 298 343 11,200 2,441 Climbing FlightAware ADS-B
Thu 12:21:35 PM 47.2249 -122.1270 171° South 335 386 12,100 2,318 Climbing FlightAware ADS-B
Thu 12:21:50 PM 47.2022 -122.1230 174° South 342 394 12,900 2,045 Climbing FlightAware ADS-B
Thu 12:22:19 PM 47.1534 -122.1180 177° South 378 435 13,600 1,525 Climbing FlightAware ADS-B
Thu 12:22:49 PM 47.0983 -122.1130 177° South 408 470 14,400 2,300 Climbing FlightAware ADS-B
Thu 12:23:19 PM 47.0411 -122.1080 177° South 410 472 15,900 2,852 Climbing FlightAware ADS-B
Thu 12:23:50 PM 46.9837 -122.1030 177° South 415 478 17,300 2,754 Climbing FlightAware ADS-B
Thu 12:24:20 PM 46.9258 -122.0990 177° South 421 484 18,700 2,700 Climbing FlightAware ADS-B
Thu 12:24:50 PM 46.8671 -122.1010 183° South 423 487 20,000 2,400 Climbing FlightAware ADS-B
Thu 12:25:20 PM 46.8081 -122.1050 183° South 429 494 21,100 2,200 Climbing FlightAware ADS-B
Thu 12:25:50 PM 46.7479 -122.1100 183° South 436 502 22,200 2,000 Climbing FlightAware ADS-B
Thu 12:26:20 PM 46.6864 -122.1150 183° South 441 507 23,100 1,902 Climbing FlightAware ADS-B
Thu 12:26:31 PM 46.6676 -122.1164 183° South 446 513 23,500 2,000 Climbing FlightAware ADS-B (CYVR)
Thu 12:26:50 PM 46.6242 -122.1200 183° South 450 518 24,100 1,733 Climbing FlightAware ADS-B
Thu 12:27:16 PM 46.5701 -122.1239 183° South 457 526 24,800 1,548 Climbing FlightAware ADS-B
Thu 12:27:21 PM 46.5604 -122.1250 183° South 457 526 24,900 1,886 Climbing FlightAware ADS-B
Thu 12:27:51 PM 46.4964 -122.1300 183° South 458 527 25,900 2,000 Climbing FlightAware ADS-B
Thu 12:27:57 PM 46.4892 -122.1309 183° South 460 529 26,100 1,600 Climbing FlightAware ADS-B
Thu 12:28:21 PM 46.4315 -122.1360 183° South 465 535 26,700 1,418 Climbing FlightAware ADS-B
Thu 12:28:52 PM 46.3663 -122.1420 184° South 470 541 27,400 1,358 Climbing FlightAware ADS-B
Thu 12:29:14 PM 46.3179 -122.1440 180° South 476 548 27,900 1,227 Climbing FlightAware ADS-B
Thu 12:29:36 PM 46.2697 -122.1430 177° South 481 554 28,300 1,154 Climbing FlightAware ADS-B
Thu 12:30:06 PM 46.2021 -122.1360 176° South 483 556 28,900 689 Climbing FlightAware ADS-B
Thu 12:30:37 PM 46.1346 -122.1280 176° South 479 551 29,000 98 Climbing FlightAware ADS-B
Thu 12:31:07 PM 46.0683 -122.1210 176° South 479 551 29,000  Level FlightAware ADS-B
Thu 12:31:37 PM 46.0013 -122.1140 176° South 482 555 29,000  Level FlightAware ADS-B
Thu 12:32:07 PM 45.9337 -122.1070 176° South 483 556 29,000  Level FlightAware ADS-B
Thu 12:32:38 PM 45.8661 -122.1000 176° South 482 555 29,000  Level FlightAware ADS-B
Thu 12:33:08 PM 45.7985 -122.0920 176° South 482 555 29,000  Level FlightAware ADS-B
Thu 12:33:38 PM 45.7304 -122.0850 176° South 483 556 29,000  Level FlightAware ADS-B
Thu 12:34:11 PM 45.6577 -122.0770 176° South 484 557 29,000  Level FlightAware ADS-B
Thu 12:34:43 PM 45.5872 -122.0700 176° South 483 556 29,000  Level FlightAware ADS-B
Thu 12:35:15 PM 45.5158 -122.0620 176° South 484 557 29,000  Level FlightAware ADS-B
Thu 12:35:45 PM 45.4487 -122.0550 176° South 484 557 29,000  Level FlightAware ADS-B
Thu 12:36:18 PM 45.3734 -122.0470 176° South 487 560 29,000  Level FlightAware ADS-B
Thu 12:37:42 PM 45.2086 -122.0300 176° South 485 558 29,000 -41 Level Seattle Center
Thu 12:38:43 PM 45.0719 -122.0158 176° South 489 563 28,900  Descending Seattle Center
Thu 12:39:44 PM 44.9342 -122.0017 176° South 492 566 29,000 49 Climbing Seattle Center
Thu 12:40:45 PM 44.7994 -121.9875 176° South 486 559 29,000  Level Seattle Center
Thu 12:41:46 PM 44.6628 -121.9736 176° South 486 559 29,000  Level Seattle Center
Thu 12:42:47 PM 44.5125 -121.9569 175° South 494 568 29,000  Level Seattle Center
Thu 12:43:48 PM 44.3744 -121.9417 175° South 494 568 29,000  Level Seattle Center
Thu 12:44:49 PM 44.2339 -121.9292 176° South 497 572 29,000  Level Seattle Center
Thu 12:45:50 PM 44.0950 -121.9153 176° South 497 572 29,000  Level Seattle Center
Thu 12:46:51 PM 43.9561 -121.9000 175° South 498 573 29,000  Level Seattle Center
Thu 12:47:52 PM 43.8147 -121.8864 176° South 502 578 29,000  Level Seattle Center
Thu 12:48:53 PM 43.6756 -121.8731 176° South 502 578 29,000  Level Seattle Center
Thu 12:49:54 PM 43.5375 -121.8600 176° South 502 578 29,000  Level Seattle Center
Thu 12:50:55 PM 43.3694 -121.8431 176° South 503 579 29,000  Level Seattle Center
Thu 12:51:56 PM 43.2303 -121.8286 176° South 503 579 29,000  Level Seattle Center
Thu 12:52:57 PM 43.0897 -121.8150 176° South 504 580 29,000  Level Seattle Center
Thu 12:53:58 PM 42.9486 -121.8025 176° South 506 582 29,000  Level Seattle Center
Thu 12:54:59 PM 42.8092 -121.7875 175° South 504 580 29,000  Level Seattle Center
Thu 12:56:00 PM 42.6683 -121.7692 175° South 505 581 29,000  Level Seattle Center
Thu 12:57:01 PM 42.5272 -121.7461 173° South 509 586 29,000  Level Seattle Center
Thu 12:58:02 PM 42.3872 -121.7250 174° South 507 583 29,000  Level Seattle Center
Thu 12:59:03 PM 42.2456 -121.7058 174° South 506 582 29,000  Level Seattle Center
Thu 01:00:04 PM 42.1042 -121.6853 174° South 505 581 29,000  Level Seattle Center
Thu 01:01:05 PM 41.9617 -121.6647 174° South 505 581 29,000  Level Seattle Center
Thu 01:02:06 PM 41.8203 -121.6444 174° South 505 581 29,000  Level Seattle Center
Thu 01:03:07 PM 41.6789 -121.6239 174° South 506 582 29,000  Level Seattle Center
Thu 01:04:08 PM 41.5383 -121.6033 174° South 506 582 29,000  Level Seattle Center
Thu 01:05:09 PM 41.3972 -121.5819 174° South 506 582 29,000  Level Seattle Center
Thu 01:06:10 PM 41.2603 -121.5622 174° South 502 578 29,000  Level Seattle Center
Thu 01:07:11 PM 41.1233 -121.5417 174° South 495 570 29,000  Level Seattle Center
Thu 01:08:12 PM 40.9597 -121.5200 174° South 494 568 29,000  Level Seattle Center
Thu 01:09:13 PM 40.8261 -121.4978 173° South 496 571 29,000 -954 Level Seattle Center
Thu 01:14:42 PM 40.1297 -121.5518 170° South 460 529 22,800 -1,360 Descending FlightAware ADS-B (KSAC)
Thu 01:18:42 PM 39.6326 -121.4329 169° South 433 498 16,100 -1,623 Descending FlightAware ADS-B (KSAC)
Thu 01:19:23 PM 39.5516 -121.4139 169° South 424 488 15,200 -1,291 Descending FlightAware ADS-B (KSAC)
Thu 01:20:01 PM 39.4783 -121.3967 169° South 418 481 14,400 -1,367 Descending FlightAware ADS-B (KSAC)
Thu 01:20:42 PM 39.4044 -121.3651 152° Southeast 418 481 13,400 -1,407 Descending FlightAware ADS-B (KSAC)
Thu 01:21:22 PM 39.3374 -121.3192 152° Southeast 413 475 12,500 -1,247 Descending FlightAware ADS-B (KSAC)
Thu 01:21:59 PM 39.2745 -121.2772 153° Southeast 405 466 11,800 -1,200 Descending FlightAware ADS-B (KSAC)
Thu 01:22:42 PM 39.2019 -121.2313 154° Southeast 398 458 10,900 -1,157 Descending FlightAware ADS-B (KSAC)
Thu 01:23:22 PM 39.1371 -121.1908 153° Southeast 392 451 10,200 -885 Descending FlightAware ADS-B (KSAC)
Thu 01:23:43 PM 39.1025 -121.1689 153° Southeast 363 418 10,000 -203 Descending FlightAware ADS-B (KSAC)
Thu 01:24:21 PM 39.0523 -121.1367 153° Southeast 283 326 10,000 -508 Level FlightAware ADS-B (KSAC)
Thu 01:24:42 PM 39.0274 -121.1206 153° Southeast 273 314 9,500 -1,650 Descending FlightAware ADS-B (KSAC)
Thu 01:25:01 PM 39.0074 -121.1076 153° Southeast 271 312 8,900 -2,136 Descending FlightAware ADS-B (KSAC)
Thu 01:25:41 PM 38.9630 -121.0789 153° Southeast 268 308 7,400 -2,000 Descending FlightAware ADS-B (KSAC)
Thu 01:26:01 PM 38.9408 -121.0645 155° Southeast 269 310 6,900 -1,317 Descending FlightAware ADS-B (KSAC)
Thu 01:26:22 PM 38.9145 -121.0577 176° South 262 302 6,500 -1,171 Descending FlightAware ADS-B (KSAC)
Thu 01:26:42 PM 38.8910 -121.0566 179° South 261 300 6,100 -750 Descending FlightAware ADS-B (KSAC)
Thu 01:27:02 PM 38.8663 -121.0570 180° South 260 299 6,000  Descending FlightAware ADS-B (KSAC)
Thu 01:27:36 PM 38.8466 -121.0574 180° South 259 298 6,100 -102 Climbing FlightAware ADS-B (KMHR)
Thu 01:28:01 PM 38.7956 -121.0580 180° South 261 300 5,900 -585 Descending FlightAware ADS-B (KSAC)
Thu 01:28:17 PM 38.7670 -121.0581 180° South 259 298 5,700 -1,029 Descending FlightAware ADS-B (KMHR)
Thu 01:28:36 PM 38.7435 -121.0582 180° South 260 299 5,300 -1,077 Descending FlightAware ADS-B (KMHR)
Thu 01:28:56 PM 38.7195 -121.0582 180° South 255 293 5,000 -889 Descending FlightAware ADS-B (KMHR)
Thu 01:29:03 PM 38.7219 -121.0582 360° North 256 295 4,900 -1,263 Descending FlightAware ADS-B (KSAC)
Thu 01:29:15 PM 38.6995 -121.0594 197° South 249 287 4,600 -1,273 Descending FlightAware ADS-B (KMHR)
Thu 01:29:36 PM 38.6797 -121.0774 234° Southwest 240 276 4,200 -1,256 Descending FlightAware ADS-B (KMHR)
Thu 01:29:58 PM 38.6678 -121.0992 235° Southwest 231 266 3,700 -1,429 Descending FlightAware ADS-B (KMHR)
Thu 01:30:18 PM 38.6598 -121.1136 234° Southwest 225 259 3,200 -1,364 Descending FlightAware ADS-B (KMHR)
Thu 01:30:42 PM 38.6436 -121.1416 233° Southwest 216 249 2,700 -1,116 Descending FlightAware ADS-B (KSAC)
Thu 01:31:01 PM 38.6328 -121.1604 233° Southwest 196 226 2,400 -1,050 Descending FlightAware ADS-B (KSAC)
Thu 01:31:22 PM 38.6222 -121.1788 233° Southwest 181 208 2,000 -878 Descending FlightAware ADS-B (KSAC)
Thu 01:32:23 PM 38.5958 -121.2245 233° Southwest 148 170 1,200 -750 Descending FlightAware ADS-B (KSAC)
Thu 01:32:42 PM 38.5882 -121.2377 234° Southwest 148 170 1,000 -769 Descending FlightAware ADS-B (KSAC)
Thu 01:33:02 PM 38.5799 -121.2523 234° Southwest 150 173 700 -923 Descending FlightAware ADS-B (KSAC)
Thu 01:33:21 PM 38.5723 -121.2656 233° Southwest 150 173 400 -600 Descending FlightAware ADS-B (KSAC)
Thu 01:34:02 PM 38.5693 -121.2709 233° Southwest 147 169 100 -439 Descending FlightAware ADS-B (KSAC)

Login

Don't have an account? Register now (free) for customized features, flight alerts, and more!